Terminal Aerodrome Forecast
Issued by NWS

Current Version | Previous Version | Text Only | Print | Product List | Glossary On
Versions: 1 2 3 4 5 6 7 8 9 10 11 12 13 14 15 16 17 18 19 20 21 22 23 24 25
000
FTUS41 KBUF 242300
TAFIAG
TAF
KIAG 242336Z 2500/2524 23007KT P6SM FEW250
     FM250100 24007KT P6SM BKN040
     FM251000 23006KT P6SM BKN025
     FM251500 23015G21KT P6SM BKN025
     FM251900 24020G32KT P6SM OVC025
     FM252100 26017G28KT P6SM OVC040=

USA.gov is the U.S. government's official web portal to all federal, state and local government web resources and services.